Time;durP1;ratioP1;P1;durP2;ratioP2;P2;SDS_P1;SDS_P2;PMS_P1;PMS_P2;Temp;Humidity;BMP_temperature;BMP_pressure;BME280_temperature;BME280_humidity;BME280_pressure;Samples;Min_cycle;Max_cycle;Signal;HPM_P1;HPM_P2
2024/01/07 00:02:13;;;;;;;1.67;0.88;;;8.30;64.60;;;;;;6263126;28;20050;-78
2024/01/07 00:05:14;;;;;;;2.75;0.68;;;8.30;64.80;;;;;;6242049;28;20453;-78
2024/01/07 00:08:15;;;;;;;0.65;0.43;;;8.30;64.90;;;;;;6249833;28;20128;-77
2024/01/07 00:11:16;;;;;;;1.23;0.73;;;8.30;64.90;;;;;;6265537;28;20044;-77
2024/01/07 00:14:17;;;;;;;1.55;0.57;;;8.30;64.90;;;;;;6247419;28;20162;-78
2024/01/07 00:17:19;;;;;;;1.10;0.77;;;8.30;65.00;;;;;;6266354;28;20102;-78
2024/01/07 00:20:20;;;;;;;2.13;0.75;;;8.40;65.00;;;;;;6264816;28;20091;-78
2024/01/07 00:23:23;;;;;;;1.42;0.90;;;8.40;64.90;;;;;;6265823;28;20021;-77
2024/01/07 00:26:25;;;;;;;0.73;0.73;;;8.30;64.70;;;;;;6244131;28;20127;-77
2024/01/07 00:29:26;;;;;;;0.68;0.63;;;8.30;64.90;;;;;;6248797;28;20020;-77
2024/01/07 00:32:26;;;;;;;0.85;0.75;;;8.20;65.10;;;;;;6266873;28;20093;-78
2024/01/07 00:35:27;;;;;;;0.73;0.60;;;8.20;65.40;;;;;;6251860;28;20464;-78
2024/01/07 00:38:28;;;;;;;1.08;0.93;;;8.20;65.20;;;;;;6264831;28;20089;-78
2024/01/07 00:41:32;;;;;;;0.82;0.75;;;8.20;65.20;;;;;;6264427;28;20017;-78
2024/01/07 00:44:33;;;;;;;0.80;0.50;;;8.20;65.40;;;;;;6268256;28;20859;-77
2024/01/07 00:47:34;;;;;;;5.70;0.90;;;8.20;65.60;;;;;;6273461;28;20467;-77
2024/01/07 00:50:35;;;;;;;1.38;1.00;;;8.20;66.00;;;;;;6270931;28;20039;-78
2024/01/07 00:53:36;;;;;;;1.00;0.70;;;8.10;66.10;;;;;;6267745;28;20504;-77
2024/01/07 00:56:38;;;;;;;8.65;0.98;;;8.10;66.40;;;;;;6264681;28;20437;-78
2024/01/07 00:59:44;;;;;;;1.67;0.88;;;8.10;66.50;;;;;;6258336;28;20092;-78
2024/01/07 01:02:47;;;;;;;1.58;1.25;;;8.10;66.70;;;;;;6270177;28;20023;-78
2024/01/07 01:05:48;;;;;;;2.15;1.25;;;8.10;66.70;;;;;;6273236;28;20033;-77
2024/01/07 01:08:49;;;;;;;1.08;0.70;;;8.10;66.70;;;;;;6273876;28;20063;-79
2024/01/07 01:11:50;;;;;;;0.70;0.70;;;8.10;66.70;;;;;;6272391;28;20422;-78
2024/01/07 01:14:52;;;;;;;0.50;0.50;;;8.10;66.70;;;;;;6278390;28;20056;-78
2024/01/07 01:17:55;;;;;;;0.60;0.60;;;8.10;66.70;;;;;;6269176;28;20107;-79
2024/01/07 01:20:56;;;;;;;0.50;0.50;;;8.10;66.90;;;;;;6272664;28;20035;-78
2024/01/07 01:23:57;;;;;;;0.73;0.65;;;8.10;67.00;;;;;;6265550;28;20021;-80
2024/01/07 01:27:00;;;;;;;0.50;0.50;;;8.10;67.20;;;;;;6252434;28;20543;-79
2024/01/07 01:30:02;;;;;;;3.63;0.85;;;8.10;67.10;;;;;;6271386;28;20017;-79
2024/01/07 01:33:04;;;;;;;1.40;0.73;;;8.10;67.10;;;;;;6265643;28;20392;-79
2024/01/07 01:36:05;;;;;;;0.60;0.50;;;8.10;67.20;;;;;;6268330;28;20021;-78
2024/01/07 01:39:06;;;;;;;0.30;0.30;;;8.00;66.90;;;;;;6271138;28;20429;-78
2024/01/07 01:42:07;;;;;;;0.50;0.50;;;8.00;66.90;;;;;;6271163;28;20146;-78
2024/01/07 01:45:08;;;;;;;0.30;0.30;;;8.00;67.00;;;;;;6267822;28;20124;-79
2024/01/07 01:48:09;;;;;;;0.40;0.40;;;8.00;67.20;;;;;;6267717;28;20394;-78
2024/01/07 01:51:10;;;;;;;0.30;0.30;;;8.00;67.20;;;;;;6266838;28;20017;-79
2024/01/07 01:54:12;;;;;;;0.40;0.25;;;8.00;67.20;;;;;;6268589;28;20036;-78
2024/01/07 01:57:19;;;;;;;1.00;0.55;;;8.00;67.40;;;;;;6270842;28;20284;-79
2024/01/07 02:00:21;;;;;;;0.38;0.38;;;8.00;67.50;;;;;;6253551;28;20021;-77
2024/01/07 02:03:22;;;;;;;0.93;0.45;;;8.00;67.50;;;;;;6283666;28;20078;-77
2024/01/07 02:06:25;;;;;;;0.30;0.30;;;8.00;67.50;;;;;;6245599;28;20048;-78
2024/01/07 02:09:26;;;;;;;0.22;0.22;;;8.00;67.50;;;;;;6299938;28;20024;-78
2024/01/07 02:12:27;;;;;;;0.95;0.30;;;8.00;67.40;;;;;;6250952;28;20020;-77
2024/01/07 02:15:29;;;;;;;0.35;0.30;;;8.00;67.40;;;;;;6268143;28;20460;-79
2024/01/07 02:18:30;;;;;;;0.43;0.43;;;8.00;67.30;;;;;;6261252;28;20058;-79
2024/01/07 02:21:32;;;;;;;0.77;0.55;;;8.00;67.20;;;;;;6282014;28;20341;-80
2024/01/07 02:24:34;;;;;;;0.10;0.10;;;8.10;67.20;;;;;;6266543;28;20024;-78
2024/01/07 02:27:36;;;;;;;0.50;0.50;;;8.10;67.10;;;;;;6257713;28;20020;-78
2024/01/07 02:30:37;;;;;;;0.30;0.30;;;8.10;67.00;;;;;;6265914;28;20012;-78
2024/01/07 02:33:37;;;;;;;0.20;0.20;;;8.10;67.00;;;;;;6246465;28;20456;-78
2024/01/07 02:36:39;;;;;;;0.10;0.10;;;8.10;67.00;;;;;;6266500;28;20338;-80
2024/01/07 02:39:40;;;;;;;2.03;0.13;;;8.10;67.00;;;;;;6269038;28;20485;-78
2024/01/07 02:42:43;;;;;;;0.22;0.22;;;8.10;66.90;;;;;;6266779;28;20115;-77
2024/01/07 02:45:44;;;;;;;0.32;0.32;;;8.10;66.80;;;;;;6238096;28;20065;-79
2024/01/07 02:48:45;;;;;;;0.22;0.20;;;8.10;67.00;;;;;;6267278;28;20032;-78
2024/01/07 02:51:49;;;;;;;0.32;0.32;;;8.10;67.10;;;;;;6251536;28;20045;-78
2024/01/07 02:54:51;;;;;;;0.43;0.20;;;8.20;67.50;;;;;;6275521;28;20140;-77
2024/01/07 02:57:53;;;;;;;0.10;0.10;;;8.20;66.90;;;;;;6253150;28;20408;-78
2024/01/07 03:00:54;;;;;;;0.47;0.30;;;8.20;66.80;;;;;;6223863;28;20089;-78
2024/01/07 03:03:55;;;;;;;0.38;0.35;;;8.20;66.70;;;;;;6269755;28;20063;-78
2024/01/07 03:06:56;;;;;;;0.65;0.30;;;8.30;66.60;;;;;;6265073;28;20041;-78
2024/01/07 03:09:58;;;;;;;0.10;0.10;;;8.30;66.70;;;;;;6263015;28;20115;-78
2024/01/07 03:13:00;;;;;;;0.15;0.15;;;8.30;66.50;;;;;;6267813;28;20496;-78
2024/01/07 03:16:01;;;;;;;0.25;0.25;;;8.30;66.40;;;;;;6265790;28;20025;-76
2024/01/07 03:19:04;;;;;;;0.30;0.20;;;8.30;66.30;;;;;;6267976;28;20020;-77
2024/01/07 03:22:07;;;;;;;0.20;0.20;;;8.30;66.30;;;;;;6265272;28;20593;-79
2024/01/07 03:25:08;;;;;;;0.30;0.30;;;8.30;67.10;;;;;;6266869;28;20143;-79
2024/01/07 03:28:10;;;;;;;0.00;0.00;;;8.30;66.10;;;;;;6267012;28;20405;-78
2024/01/07 03:31:15;;;;;;;0.43;0.10;;;8.40;66.20;;;;;;6267553;28;20040;-78
2024/01/07 03:34:16;;;;;;;0.40;0.30;;;8.40;66.10;;;;;;6250536;28;20026;-79
2024/01/07 03:37:19;;;;;;;0.20;0.20;;;8.40;66.00;;;;;;6264213;28;20468;-78
2024/01/07 03:40:20;;;;;;;0.75;0.40;;;8.40;66.00;;;;;;6267237;28;20104;-79
2024/01/07 03:43:21;;;;;;;0.35;0.30;;;8.40;66.00;;;;;;6266526;28;20025;-77
2024/01/07 03:46:22;;;;;;;0.45;0.22;;;8.50;66.10;;;;;;6264765;28;20028;-78
2024/01/07 03:49:23;;;;;;;0.20;0.20;;;8.40;66.10;;;;;;6264239;28;20028;-78
2024/01/07 03:52:24;;;;;;;0.22;0.20;;;8.40;66.10;;;;;;6266074;28;20082;-78
2024/01/07 03:55:26;;;;;;;0.20;0.20;;;8.40;66.00;;;;;;6250665;28;20198;-78
2024/01/07 03:58:28;;;;;;;0.80;0.22;;;8.40;66.00;;;;;;6267805;28;20056;-78
2024/01/07 04:01:32;;;;;;;2.20;0.45;;;8.50;66.00;;;;;;6270638;28;20021;-79
2024/01/07 04:04:33;;;;;;;0.10;0.10;;;8.50;66.00;;;;;;6248958;28;20051;-78
2024/01/07 04:07:34;;;;;;;0.65;0.30;;;8.50;65.80;;;;;;6251671;28;20049;-78
2024/01/07 04:10:35;;;;;;;0.82;0.40;;;8.50;65.80;;;;;;6244013;28;20339;-78
2024/01/07 04:13:36;;;;;;;0.10;0.10;;;8.50;65.80;;;;;;6268878;28;20025;-79
2024/01/07 04:16:38;;;;;;;0.28;0.28;;;8.50;66.00;;;;;;6267195;28;20106;-77
2024/01/07 04:19:39;;;;;;;1.13;0.93;;;8.50;66.00;;;;;;6270049;28;20107;-79
2024/01/07 04:22:40;;;;;;;0.77;0.30;;;8.50;65.90;;;;;;6269157;28;20561;-76
2024/01/07 04:25:42;;;;;;;0.20;0.20;;;8.50;65.80;;;;;;6275922;28;20032;-77
2024/01/07 04:28:44;;;;;;;0.25;0.20;;;8.50;65.80;;;;;;6285745;28;20031;-77
2024/01/07 04:31:45;;;;;;;0.20;0.08;;;8.50;65.80;;;;;;6273280;28;20024;-78
2024/01/07 04:34:46;;;;;;;0.55;0.15;;;8.50;65.80;;;;;;6253710;28;20064;-77
2024/01/07 04:37:47;;;;;;;0.30;0.22;;;8.60;65.90;;;;;;6269647;28;20353;-78
2024/01/07 04:40:49;;;;;;;0.20;0.20;;;8.60;65.90;;;;;;6269685;28;20066;-78
2024/01/07 04:43:50;;;;;;;0.40;0.30;;;8.50;65.70;;;;;;6260340;28;20043;-78
2024/01/07 04:46:51;;;;;;;0.15;0.10;;;8.50;65.60;;;;;;6275099;28;20017;-78
2024/01/07 04:49:51;;;;;;;0.10;0.10;;;8.50;65.50;;;;;;6268037;28;20017;-77
2024/01/07 04:52:54;;;;;;;0.17;0.10;;;8.50;65.40;;;;;;6287163;28;20033;-78
2024/01/07 04:55:55;;;;;;;0.10;0.10;;;8.50;65.40;;;;;;6292057;28;20107;-77
2024/01/07 04:58:56;;;;;;;0.10;0.10;;;8.50;65.50;;;;;;6270463;28;20039;-79
2024/01/07 05:01:57;;;;;;;0.17;0.17;;;8.50;65.50;;;;;;6249263;28;20102;-78
2024/01/07 05:04:57;;;;;;;0.20;0.20;;;8.50;65.60;;;;;;6274211;28;20035;-77
2024/01/07 05:08:00;;;;;;;0.88;0.55;;;8.50;65.70;;;;;;6267788;28;20025;-78
2024/01/07 05:11:01;;;;;;;0.10;0.10;;;8.50;65.70;;;;;;6284923;28;20063;-77
2024/01/07 05:14:03;;;;;;;0.00;0.00;;;8.50;65.60;;;;;;6272947;28;20451;-78
2024/01/07 05:17:05;;;;;;;0.10;0.10;;;8.50;65.60;;;;;;6257939;28;20020;-79
2024/01/07 05:20:06;;;;;;;0.10;0.10;;;8.40;65.50;;;;;;6272169;28;20021;-79
2024/01/07 05:23:07;;;;;;;0.30;0.30;;;8.40;65.40;;;;;;6273647;28;20713;-78
2024/01/07 05:26:09;;;;;;;0.08;0.08;;;8.40;65.60;;;;;;6262699;28;20051;-77
2024/01/07 05:29:13;;;;;;;0.10;0.10;;;8.30;65.70;;;;;;6256841;28;20081;-78
2024/01/07 05:32:16;;;;;;;0.20;0.20;;;8.30;65.90;;;;;;6269774;28;20069;-79
2024/01/07 05:35:19;;;;;;;0.35;0.20;;;8.30;66.20;;;;;;6267335;28;20021;-79
2024/01/07 05:38:21;;;;;;;0.32;0.13;;;8.20;66.40;;;;;;6261981;28;20235;-77
2024/01/07 05:41:24;;;;;;;0.20;0.20;;;8.20;66.50;;;;;;6263629;28;20134;-77
2024/01/07 05:44:25;;;;;;;0.10;0.10;;;8.30;66.40;;;;;;6245136;28;20123;-79
2024/01/07 05:47:27;;;;;;;0.10;0.10;;;8.20;66.20;;;;;;6274819;28;20027;-77
2024/01/07 05:50:28;;;;;;;0.10;0.10;;;8.20;66.10;;;;;;6249791;28;20120;-79
2024/01/07 05:53:31;;;;;;;0.10;0.10;;;8.20;66.20;;;;;;6305429;28;20543;-78
2024/01/07 05:56:32;;;;;;;0.00;0.00;;;8.20;66.20;;;;;;6266067;28;20032;-78
2024/01/07 05:59:32;;;;;;;0.13;0.10;;;8.10;66.30;;;;;;6270495;28;20017;-78
2024/01/07 06:02:34;;;;;;;0.10;0.10;;;8.10;66.50;;;;;;6274742;28;20021;-77
2024/01/07 06:05:38;;;;;;;0.00;0.00;;;8.00;66.50;;;;;;6265951;28;20120;-77
2024/01/07 06:08:39;;;;;;;0.00;0.00;;;8.00;66.60;;;;;;6251247;28;20033;-77
2024/01/07 06:11:40;;;;;;;0.10;0.10;;;7.90;66.90;;;;;;6268656;28;20118;-79
2024/01/07 06:14:41;;;;;;;0.00;0.00;;;7.90;67.00;;;;;;6262438;28;20053;-79
2024/01/07 06:17:42;;;;;;;0.75;0.10;;;7.90;67.00;;;;;;6252882;28;20028;-78
2024/01/07 06:20:45;;;;;;;0.35;0.20;;;7.90;67.10;;;;;;6255274;28;20495;-78
2024/01/07 06:23:46;;;;;;;0.00;0.00;;;7.90;67.20;;;;;;6254971;28;20182;-77
2024/01/07 06:26:47;;;;;;;0.10;0.10;;;7.80;67.40;;;;;;6260776;28;20044;-77
2024/01/07 06:29:48;;;;;;;0.15;0.10;;;7.80;67.50;;;;;;6269371;28;20533;-77
2024/01/07 06:32:49;;;;;;;0.08;0.08;;;7.70;67.70;;;;;;6249758;28;20032;-78
2024/01/07 06:35:49;;;;;;;0.30;0.17;;;7.70;67.90;;;;;;6234168;28;20107;-77
2024/01/07 06:38:50;;;;;;;0.28;0.17;;;7.60;68.00;;;;;;6251005;28;20465;-78
2024/01/07 06:41:53;;;;;;;0.22;0.22;;;7.60;68.20;;;;;;6250296;28;20024;-78
2024/01/07 06:44:56;;;;;;;0.10;0.10;;;7.60;68.40;;;;;;6267129;28;20440;-79
2024/01/07 06:47:57;;;;;;;0.20;0.13;;;7.50;68.50;;;;;;6279217;28;20074;-78
2024/01/07 06:50:59;;;;;;;0.05;0.05;;;7.50;68.60;;;;;;6267383;28;20029;-77
2024/01/07 06:54:02;;;;;;;0.10;0.10;;;7.50;68.70;;;;;;6265754;28;20492;-79
2024/01/07 06:57:03;;;;;;;0.22;0.10;;;7.40;68.70;;;;;;6272390;28;20230;-78
2024/01/07 07:00:05;;;;;;;0.00;0.00;;;7.40;69.10;;;;;;6254045;28;20496;-78
2024/01/07 07:03:07;;;;;;;0.30;0.30;;;7.40;69.10;;;;;;6267476;28;20052;-77
2024/01/07 07:06:08;;;;;;;0.52;0.43;;;7.40;69.20;;;;;;6265092;28;20035;-78
2024/01/07 07:09:12;;;;;;;0.25;0.25;;;7.30;69.30;;;;;;6236281;28;20460;-78
2024/01/07 07:12:12;;;;;;;0.40;0.40;;;7.30;69.50;;;;;;6263965;28;20146;-77
2024/01/07 07:15:13;;;;;;;0.22;0.20;;;7.30;69.70;;;;;;6250830;28;20476;-77
2024/01/07 07:18:14;;;;;;;0.20;0.20;;;7.30;69.90;;;;;;6252531;28;20121;-78
2024/01/07 07:21:15;;;;;;;0.50;0.40;;;7.20;70.10;;;;;;6264454;28;20039;-77
2024/01/07 07:24:17;;;;;;;0.35;0.35;;;7.20;70.10;;;;;;6273058;28;20479;-78
2024/01/07 07:27:18;;;;;;;0.98;0.70;;;7.20;70.30;;;;;;6274372;28;20053;-76
2024/01/07 07:30:19;;;;;;;1.10;0.40;;;7.20;70.40;;;;;;6235197;28;20021;-77
2024/01/07 07:33:21;;;;;;;0.43;0.43;;;7.20;70.40;;;;;;6280142;28;20127;-77
2024/01/07 07:36:22;;;;;;;0.57;0.32;;;7.10;70.70;;;;;;6248442;28;20048;-78
2024/01/07 07:39:24;;;;;;;0.63;0.38;;;7.20;70.70;;;;;;6246461;28;20043;-78
2024/01/07 07:42:26;;;;;;;0.55;0.50;;;7.20;70.70;;;;;;6268871;28;20457;-76
2024/01/07 07:45:27;;;;;;;0.28;0.28;;;7.10;70.80;;;;;;6267191;28;20098;-76
2024/01/07 07:48:28;;;;;;;1.15;0.45;;;7.10;71.00;;;;;;6266366;28;20017;-75
2024/01/07 07:51:29;;;;;;;0.88;0.57;;;7.10;71.30;;;;;;6246703;28;20717;-77
2024/01/07 07:54:29;;;;;;;1.75;0.40;;;7.10;71.60;;;;;;6263814;28;20398;-76
2024/01/07 07:57:30;;;;;;;0.38;0.35;;;7.10;71.70;;;;;;6266887;28;20028;-78
2024/01/07 08:00:31;;;;;;;1.50;0.60;;;7.00;71.90;;;;;;6267251;28;20096;-76
2024/01/07 08:03:32;;;;;;;0.85;0.63;;;7.00;72.10;;;;;;6263109;28;20078;-76
2024/01/07 08:06:34;;;;;;;0.63;0.63;;;7.00;72.20;;;;;;6263948;28;20132;-77
2024/01/07 08:09:38;;;;;;;0.40;0.38;;;7.00;72.30;;;;;;6264655;28;20040;-77
2024/01/07 08:12:39;;;;;;;0.65;0.28;;;7.10;72.40;;;;;;6229548;28;20026;-78
2024/01/07 08:15:40;;;;;;;0.52;0.50;;;7.10;72.40;;;;;;6248579;28;20547;-77
2024/01/07 08:18:41;;;;;;;0.40;0.32;;;7.00;72.40;;;;;;6235073;28;20323;-76
2024/01/07 08:21:43;;;;;;;0.30;0.30;;;7.10;72.60;;;;;;6267919;28;20453;-76
2024/01/07 08:24:45;;;;;;;0.70;0.45;;;7.10;72.70;;;;;;6249015;28;20036;-77
2024/01/07 08:27:45;;;;;;;0.63;0.63;;;7.10;72.60;;;;;;6264454;28;20208;-75
2024/01/07 08:30:46;;;;;;;0.57;0.40;;;7.10;72.60;;;;;;6245945;28;20096;-77
2024/01/07 08:33:47;;;;;;;1.05;0.70;;;7.10;73.50;;;;;;6262099;28;20078;-77
2024/01/07 08:36:49;;;;;;;1.10;0.50;;;7.10;72.60;;;;;;6264393;28;20461;-76
2024/01/07 08:39:50;;;;;;;1.70;0.63;;;7.10;72.60;;;;;;6266376;28;20488;-78
2024/01/07 08:42:51;;;;;;;1.33;0.95;;;7.10;72.60;;;;;;6256499;28;20449;-76
2024/01/07 08:45:53;;;;;;;0.20;0.20;;;7.10;72.60;;;;;;6262250;28;20195;-77
2024/01/07 08:48:55;;;;;;;0.22;0.22;;;7.20;72.60;;;;;;6234949;28;20742;-76
2024/01/07 08:51:58;;;;;;;0.88;0.70;;;7.10;72.60;;;;;;6263414;28;20017;-78
2024/01/07 08:55:00;;;;;;;0.70;0.68;;;7.10;72.80;;;;;;6268482;28;20033;-78
2024/01/07 08:58:01;;;;;;;1.15;0.57;;;7.10;72.80;;;;;;6273544;28;20131;-79
2024/01/07 09:01:03;;;;;;;0.57;0.50;;;7.00;72.80;;;;;;6269280;28;20398;-77
2024/01/07 09:04:04;;;;;;;0.13;0.13;;;7.00;73.00;;;;;;6269422;28;20021;-78
2024/01/07 09:07:06;;;;;;;2.38;0.57;;;7.00;73.20;;;;;;6270040;28;20044;-78
2024/01/07 09:10:10;;;;;;;0.70;0.70;;;7.10;73.30;;;;;;6253162;28;20025;-77
2024/01/07 09:13:11;;;;;;;0.57;0.57;;;7.10;72.90;;;;;;6269792;28;20508;-80
2024/01/07 09:16:13;;;;;;;0.88;0.80;;;7.10;72.90;;;;;;6269639;28;20016;-78
2024/01/07 09:19:14;;;;;;;0.75;0.60;;;7.10;73.00;;;;;;6264308;28;20100;-79
2024/01/07 09:22:15;;;;;;;0.60;0.40;;;7.10;73.00;;;;;;6269158;28;20027;-77
2024/01/07 09:25:16;;;;;;;0.45;0.45;;;7.10;73.10;;;;;;6271508;28;20071;-79
2024/01/07 09:28:17;;;;;;;0.75;0.30;;;7.00;73.10;;;;;;6268659;28;20032;-76
2024/01/07 09:31:18;;;;;;;0.63;0.47;;;7.00;73.40;;;;;;6275017;28;20403;-76
2024/01/07 09:34:20;;;;;;;0.50;0.50;;;7.10;73.40;;;;;;6252856;28;20746;-77
2024/01/07 09:37:23;;;;;;;0.45;0.30;;;7.00;73.30;;;;;;6248358;28;20396;-75
2024/01/07 09:40:24;;;;;;;0.68;0.50;;;7.10;73.70;;;;;;6251513;28;20189;-78
2024/01/07 09:43:25;;;;;;;0.40;0.30;;;7.00;73.60;;;;;;6286573;28;20065;-78
2024/01/07 09:46:28;;;;;;;0.35;0.25;;;7.10;73.80;;;;;;6267648;28;20037;-78
2024/01/07 09:49:29;;;;;;;0.63;0.63;;;7.00;73.90;;;;;;6266919;28;20154;-77
2024/01/07 09:52:33;;;;;;;1.35;0.22;;;7.20;74.00;;;;;;6265343;28;20048;-77
2024/01/07 09:55:46;;;;;;;0.95;0.47;;;7.10;74.00;;;;;;6274655;28;20028;-77
2024/01/07 09:58:49;;;;;;;0.82;0.52;;;7.10;74.00;;;;;;6271516;28;20496;-76
2024/01/07 10:01:52;;;;;;;0.50;0.47;;;7.20;74.00;;;;;;6268369;28;20395;-77
2024/01/07 10:04:53;;;;;;;0.52;0.52;;;7.10;74.00;;;;;;6269358;28;20040;-78
2024/01/07 10:07:57;;;;;;;1.65;0.68;;;7.20;74.00;;;;;;6262290;28;20020;-77
2024/01/07 10:10:58;;;;;;;0.63;0.52;;;7.20;74.10;;;;;;6290179;28;20021;-78
2024/01/07 10:13:59;;;;;;;0.22;0.22;;;7.20;74.00;;;;;;6246662;28;20136;-76
2024/01/07 10:17:00;;;;;;;0.80;0.65;;;7.30;74.00;;;;;;6269096;28;20412;-76
2024/01/07 10:20:04;;;;;;;1.38;0.82;;;7.30;74.00;;;;;;6271535;28;20073;-78
2024/01/07 10:23:07;;;;;;;0.60;0.60;;;7.20;73.70;;;;;;6250886;28;20025;-77
2024/01/07 10:26:09;;;;;;;11.73;1.08;;;7.20;73.90;;;;;;6266064;28;20088;-78
2024/01/07 10:29:14;;;;;;;0.30;0.30;;;7.20;73.80;;;;;;6270660;28;20024;-78
2024/01/07 10:32:19;;;;;;;0.70;0.52;;;7.20;73.90;;;;;;6266738;28;20103;-75
2024/01/07 10:35:27;;;;;;;0.22;0.22;;;7.20;73.80;;;;;;6282084;28;20020;-76
2024/01/07 10:38:28;;;;;;;0.88;0.82;;;7.20;73.80;;;;;;6267203;28;20071;-76
2024/01/07 10:41:32;;;;;;;0.80;0.68;;;7.10;74.00;;;;;;6274909;28;20025;-76
2024/01/07 10:44:35;;;;;;;0.47;0.40;;;7.20;74.40;;;;;;6268029;28;20080;-77
2024/01/07 10:47:37;;;;;;;0.88;0.63;;;7.20;74.50;;;;;;6267203;28;20442;-77
2024/01/07 10:50:39;;;;;;;0.63;0.45;;;7.30;74.40;;;;;;6266698;28;20017;-78
2024/01/07 10:53:43;;;;;;;0.98;0.85;;;7.30;74.20;;;;;;6258441;28;20021;-77
2024/01/07 10:56:54;;;;;;;0.70;0.35;;;7.20;74.10;;;;;;6265853;28;20024;-75
2024/01/07 10:59:56;;;;;;;0.73;0.32;;;7.30;74.40;;;;;;6262185;28;20012;-77
2024/01/07 11:03:22;;;;;;;8.98;0.80;;;7.30;74.20;;;;;;6249039;28;20021;-77
2024/01/07 11:06:57;;;;;;;0.55;0.52;;;7.30;74.30;;;;;;6266258;28;20524;-77
2024/01/07 11:10:20;;;;;;;0.73;0.60;;;7.30;74.30;;;;;;6209221;28;20197;-77
2024/01/07 11:13:38;;;;;;;0.65;0.57;;;7.30;74.30;;;;;;6213453;28;20038;-78
2024/01/07 11:16:39;;;;;;;1.15;0.90;;;7.30;74.20;;;;;;6208243;28;20095;-76
2024/01/07 11:19:51;;;;;;;0.68;0.45;;;7.30;74.20;;;;;;6225184;28;20651;-76
2024/01/07 11:23:48;;;;;;;1.83;1.00;;;7.30;74.00;;;;;;6230824;28;20115;-77
2024/01/07 11:26:53;;;;;;;0.90;0.55;;;7.30;74.10;;;;;;6148506;28;20046;-77
2024/01/07 11:30:00;;;;;;;1.23;1.00;;;7.30;74.20;;;;;;6145500;28;20020;-77
2024/01/07 11:33:01;;;;;;;0.93;0.65;;;7.30;74.20;;;;;;6146527;28;20033;-76
2024/01/07 11:36:04;;;;;;;0.70;0.68;;;7.30;74.20;;;;;;6135689;28;20031;-76
2024/01/07 11:39:08;;;;;;;1.10;0.43;;;7.40;74.00;;;;;;6135117;28;20134;-78
2024/01/07 11:42:11;;;;;;;0.98;0.63;;;7.30;74.00;;;;;;6138254;28;20112;-75
2024/01/07 11:45:12;;;;;;;6.22;0.80;;;7.30;74.00;;;;;;6135122;28;20047;-78
2024/01/07 11:48:15;;;;;;;0.50;0.50;;;7.20;74.00;;;;;;6128752;28;20023;-76
2024/01/07 11:51:17;;;;;;;0.28;0.28;;;7.20;74.00;;;;;;6152600;28;20019;-79
2024/01/07 11:54:18;;;;;;;1.17;0.77;;;7.10;74.20;;;;;;6130114;28;20197;-77
2024/01/07 11:57:19;;;;;;;1.27;0.60;;;7.10;74.30;;;;;;6163718;28;20031;-77
2024/01/07 12:00:22;;;;;;;0.50;0.50;;;7.10;74.40;;;;;;6201461;28;20048;-77
2024/01/07 12:03:26;;;;;;;2.40;1.02;;;7.10;74.40;;;;;;6264416;28;20232;-77
2024/01/07 12:06:26;;;;;;;1.92;1.15;;;7.10;74.50;;;;;;6265336;28;20032;-78
2024/01/07 12:09:28;;;;;;;1.17;1.00;;;7.20;74.70;;;;;;6264066;28;20871;-77
2024/01/07 12:12:30;;;;;;;1.00;0.60;;;7.20;74.50;;;;;;6269423;28;20089;-77
2024/01/07 12:15:33;;;;;;;1.02;0.68;;;7.20;74.40;;;;;;6271200;28;20091;-79
2024/01/07 12:18:36;;;;;;;1.48;0.65;;;7.20;74.50;;;;;;6262556;28;20368;-77
2024/01/07 12:21:37;;;;;;;2.08;0.88;;;7.10;74.30;;;;;;6267262;28;20031;-75
2024/01/07 12:24:38;;;;;;;0.95;0.60;;;7.10;74.40;;;;;;6266086;28;20118;-76
2024/01/07 12:27:41;;;;;;;0.47;0.47;;;7.10;74.50;;;;;;6248411;28;20040;-77
2024/01/07 12:30:42;;;;;;;1.95;0.73;;;7.00;74.60;;;;;;6266948;28;20457;-79
2024/01/07 12:33:45;;;;;;;9.73;1.35;;;7.10;74.70;;;;;;6270803;28;20021;-77
2024/01/07 12:36:47;;;;;;;2.80;1.00;;;7.10;74.60;;;;;;6250461;28;20021;-77
2024/01/07 12:39:48;;;;;;;1.92;0.88;;;7.10;74.80;;;;;;6276439;28;20095;-78
2024/01/07 12:42:49;;;;;;;1.52;1.15;;;7.00;74.90;;;;;;6278988;28;20473;-78
2024/01/07 12:45:51;;;;;;;3.53;1.05;;;7.10;75.00;;;;;;6261453;28;20028;-77
2024/01/07 12:48:53;;;;;;;1.98;1.00;;;7.10;74.90;;;;;;6279911;28;20036;-78
2024/01/07 12:51:54;;;;;;;1.80;1.13;;;7.10;75.00;;;;;;6277339;28;20039;-78
2024/01/07 12:54:56;;;;;;;1.50;0.73;;;7.10;74.90;;;;;;6258578;28;20118;-79
2024/01/07 12:57:59;;;;;;;1.83;1.58;;;7.10;74.80;;;;;;6262158;28;20045;-77
2024/01/07 13:01:02;;;;;;;1.85;1.45;;;7.00;74.80;;;;;;6290631;28;20134;-77
2024/01/07 13:04:03;;;;;;;2.42;0.75;;;7.00;74.90;;;;;;6274520;28;20072;-77
2024/01/07 13:07:05;;;;;;;1.10;0.70;;;7.00;75.00;;;;;;6280294;28;20029;-78
2024/01/07 13:10:07;;;;;;;2.38;1.52;;;7.00;75.10;;;;;;6248700;28;20445;-76
2024/01/07 13:13:09;;;;;;;1.63;1.27;;;7.00;74.90;;;;;;6271668;28;20009;-79
2024/01/07 13:16:13;;;;;;;1.88;0.85;;;6.90;75.20;;;;;;6278804;28;20046;-78
2024/01/07 13:19:14;;;;;;;0.70;0.68;;;7.00;75.20;;;;;;6263292;28;20107;-78
2024/01/07 13:22:17;;;;;;;2.15;1.25;;;7.00;75.40;;;;;;6278385;28;20029;-78
2024/01/07 13:25:19;;;;;;;0.95;0.80;;;7.00;75.40;;;;;;6271757;28;20032;-77
2024/01/07 13:28:22;;;;;;;2.75;1.02;;;7.00;75.10;;;;;;6270461;28;20502;-78
2024/01/07 13:31:25;;;;;;;1.83;1.30;;;7.00;75.20;;;;;;6275172;28;20021;-77
2024/01/07 13:34:26;;;;;;;2.40;0.90;;;7.00;75.40;;;;;;6277213;28;20092;-76
2024/01/07 13:37:26;;;;;;;3.55;1.00;;;7.00;75.30;;;;;;6277140;28;20039;-78
2024/01/07 13:40:27;;;;;;;1.52;0.80;;;7.00;75.40;;;;;;6275575;28;20068;-77
2024/01/07 13:43:29;;;;;;;0.70;0.70;;;7.00;75.20;;;;;;6254373;28;20277;-77
2024/01/07 13:46:30;;;;;;;0.82;0.73;;;6.90;75.30;;;;;;6258874;28;20143;-77
2024/01/07 13:49:32;;;;;;;2.22;1.25;;;6.90;75.50;;;;;;6256773;28;20330;-77
2024/01/07 13:52:33;;;;;;;1.27;0.85;;;6.90;75.70;;;;;;6263779;28;20023;-77
2024/01/07 13:55:34;;;;;;;2.13;0.95;;;6.90;75.60;;;;;;6275683;28;20154;-77
2024/01/07 13:58:36;;;;;;;0.93;0.52;;;6.90;75.40;;;;;;6239189;28;20133;-76
2024/01/07 14:01:37;;;;;;;1.65;1.00;;;6.80;75.50;;;;;;6263610;28;20437;-77
2024/01/07 14:04:38;;;;;;;1.50;1.08;;;6.80;75.50;;;;;;6275190;28;20082;-77
2024/01/07 14:07:41;;;;;;;2.05;1.08;;;6.80;75.70;;;;;;6256467;28;20016;-77
2024/01/07 14:10:44;;;;;;;0.85;0.75;;;6.80;75.70;;;;;;6278804;28;20036;-77
2024/01/07 14:13:46;;;;;;;1.63;1.52;;;6.90;75.80;;;;;;6298006;28;20077;-78
2024/01/07 14:16:50;;;;;;;1.00;0.95;;;6.90;75.80;;;;;;6271297;28;20058;-77
2024/01/07 14:19:53;;;;;;;1.33;1.13;;;7.00;75.60;;;;;;6257638;28;20256;-77
2024/01/07 14:22:54;;;;;;;1.77;0.98;;;6.80;75.60;;;;;;6274894;28;20030;-77
2024/01/07 14:25:56;;;;;;;0.70;0.70;;;6.80;75.70;;;;;;6280557;28;20033;-77
2024/01/07 14:28:59;;;;;;;2.42;1.00;;;6.80;75.70;;;;;;6265129;28;20036;-77
2024/01/07 14:32:02;;;;;;;0.70;0.52;;;6.80;75.70;;;;;;6260751;28;20131;-76
2024/01/07 14:35:05;;;;;;;1.48;0.85;;;6.80;75.70;;;;;;6272113;28;20346;-77
2024/01/07 14:38:07;;;;;;;1.33;0.90;;;6.80;75.80;;;;;;6256930;28;20037;-76
2024/01/07 14:41:07;;;;;;;1.58;0.90;;;6.80;75.80;;;;;;6272865;28;20035;-77
2024/01/07 14:44:08;;;;;;;1.17;0.77;;;6.80;75.90;;;;;;6278688;28;20013;-77
2024/01/07 14:47:10;;;;;;;1.30;1.10;;;6.80;75.90;;;;;;6273715;28;20164;-77
2024/01/07 14:50:11;;;;;;;2.72;1.10;;;6.80;75.60;;;;;;6274800;28;20051;-77
2024/01/07 14:53:12;;;;;;;1.60;1.30;;;6.70;75.50;;;;;;6274262;28;20122;-77
2024/01/07 14:56:14;;;;;;;2.00;1.20;;;6.70;75.70;;;;;;6273637;28;20425;-76
2024/01/07 14:59:15;;;;;;;0.98;0.93;;;6.70;75.70;;;;;;6255703;28;20017;-77
2024/01/07 15:02:15;;;;;;;2.17;1.50;;;6.70;75.80;;;;;;6269785;28;20040;-76
2024/01/07 15:05:16;;;;;;;1.92;0.93;;;6.70;75.90;;;;;;6274021;28;20040;-77
2024/01/07 15:08:18;;;;;;;2.20;1.02;;;6.70;75.90;;;;;;6256730;28;20029;-75
2024/01/07 15:11:21;;;;;;;1.88;1.40;;;6.70;76.00;;;;;;6278691;28;20123;-77
2024/01/07 15:14:23;;;;;;;3.40;1.83;;;6.70;76.10;;;;;;6270412;28;20013;-77
2024/01/07 15:17:26;;;;;;;2.50;1.10;;;6.70;76.10;;;;;;6259056;28;22029;-78
2024/01/07 15:20:29;;;;;;;5.05;1.42;;;6.70;76.10;;;;;;6272529;28;20032;-76
2024/01/07 15:23:30;;;;;;;2.33;1.08;;;6.80;76.40;;;;;;6274573;28;20024;-77
2024/01/07 15:26:34;;;;;;;5.72;1.40;;;6.80;76.20;;;;;;6270034;28;20031;-77
2024/01/07 15:29:35;;;;;;;1.33;0.85;;;6.80;76.20;;;;;;6268600;28;20046;-77
2024/01/07 15:32:35;;;;;;;1.48;1.02;;;6.80;76.10;;;;;;6278967;28;20032;-77
2024/01/07 15:35:38;;;;;;;6.78;1.92;;;6.90;75.80;;;;;;6276436;28;20028;-76
2024/01/07 15:38:38;;;;;;;1.10;0.77;;;6.80;75.90;;;;;;6273850;28;20095;-77
2024/01/07 15:41:39;;;;;;;3.42;1.55;;;6.80;76.00;;;;;;6253192;28;20106;-76
2024/01/07 15:44:40;;;;;;;1.98;1.30;;;6.80;75.90;;;;;;6266123;28;20040;-76
2024/01/07 15:47:42;;;;;;;1.42;1.27;;;6.70;75.80;;;;;;6266418;28;20150;-76
2024/01/07 15:50:43;;;;;;;1.30;1.20;;;6.70;75.90;;;;;;6272961;28;20108;-77
2024/01/07 15:53:44;;;;;;;2.42;1.30;;;6.70;75.90;;;;;;6268366;28;20528;-75
2024/01/07 15:56:45;;;;;;;3.13;1.58;;;6.70;76.00;;;;;;6277057;28;20082;-77
2024/01/07 15:59:46;;;;;;;1.17;0.90;;;6.70;76.10;;;;;;6258255;28;20105;-75
2024/01/07 16:02:47;;;;;;;0.82;0.63;;;6.70;76.20;;;;;;6265129;28;20055;-76